sensor_id;sensor_type;location;lat;lon;timestamp;P1;durP1;ratioP1;P2;durP2;ratioP2
27375;SDS011;14844;51.302;6.354;2022-11-20T00:01:27;30.90;;;19.63;;
27375;SDS011;14844;51.302;6.354;2022-11-20T00:03:54;32.97;;;19.83;;
27375;SDS011;14844;51.302;6.354;2022-11-20T00:06:21;32.20;;;19.92;;
27375;SDS011;14844;51.302;6.354;2022-11-20T00:08:47;32.13;;;20.17;;
27375;SDS011;14844;51.302;6.354;2022-11-20T00:11:18;28.77;;;19.42;;
27375;SDS011;14844;51.302;6.354;2022-11-20T00:13:45;31.65;;;20.40;;
27375;SDS011;14844;51.302;6.354;2022-11-20T00:16:13;31.30;;;19.38;;
27375;SDS011;14844;51.302;6.354;2022-11-20T00:18:40;30.08;;;19.77;;
27375;SDS011;14844;51.302;6.354;2022-11-20T00:21:09;30.27;;;19.85;;
27375;SDS011;14844;51.302;6.354;2022-11-20T00:23:36;33.85;;;21.25;;
27375;SDS011;14844;51.302;6.354;2022-11-20T00:26:05;28.88;;;19.85;;
27375;SDS011;14844;51.302;6.354;2022-11-20T00:28:33;30.73;;;20.00;;
27375;SDS011;14844;51.302;6.354;2022-11-20T00:31:03;34.17;;;20.77;;
27375;SDS011;14844;51.302;6.354;2022-11-20T00:33:28;32.13;;;20.35;;
27375;SDS011;14844;51.302;6.354;2022-11-20T00:35:58;30.67;;;20.85;;
27375;SDS011;14844;51.302;6.354;2022-11-20T00:38:28;35.08;;;21.30;;
27375;SDS011;14844;51.302;6.354;2022-11-20T00:40:55;32.67;;;20.92;;
27375;SDS011;14844;51.302;6.354;2022-11-20T00:43:22;31.52;;;21.05;;
27375;SDS011;14844;51.302;6.354;2022-11-20T00:45:48;33.13;;;20.75;;
27375;SDS011;14844;51.302;6.354;2022-11-20T00:48:13;33.28;;;21.20;;
27375;SDS011;14844;51.302;6.354;2022-11-20T00:50:39;34.00;;;20.70;;
27375;SDS011;14844;51.302;6.354;2022-11-20T00:53:06;30.52;;;21.02;;
27375;SDS011;14844;51.302;6.354;2022-11-20T00:55:31;32.85;;;21.02;;
27375;SDS011;14844;51.302;6.354;2022-11-20T00:57:57;34.00;;;21.17;;
27375;SDS011;14844;51.302;6.354;2022-11-20T01:00:22;31.90;;;21.48;;
27375;SDS011;14844;51.302;6.354;2022-11-20T01:02:48;31.13;;;20.80;;
27375;SDS011;14844;51.302;6.354;2022-11-20T01:05:13;30.33;;;21.50;;
27375;SDS011;14844;51.302;6.354;2022-11-20T01:07:39;32.38;;;21.25;;
27375;SDS011;14844;51.302;6.354;2022-11-20T01:10:05;31.67;;;20.80;;
27375;SDS011;14844;51.302;6.354;2022-11-20T01:12:31;33.58;;;21.95;;
27375;SDS011;14844;51.302;6.354;2022-11-20T01:14:56;31.90;;;20.92;;
27375;SDS011;14844;51.302;6.354;2022-11-20T01:17:22;33.95;;;21.50;;
27375;SDS011;14844;51.302;6.354;2022-11-20T01:19:50;32.17;;;22.05;;
27375;SDS011;14844;51.302;6.354;2022-11-20T01:22:16;31.83;;;20.75;;
27375;SDS011;14844;51.302;6.354;2022-11-20T01:24:41;34.22;;;21.25;;
27375;SDS011;14844;51.302;6.354;2022-11-20T01:27:07;33.20;;;22.40;;
27375;SDS011;14844;51.302;6.354;2022-11-20T01:29:32;32.35;;;21.50;;
27375;SDS011;14844;51.302;6.354;2022-11-20T01:31:58;33.55;;;21.95;;
27375;SDS011;14844;51.302;6.354;2022-11-20T01:34:24;34.45;;;22.90;;
27375;SDS011;14844;51.302;6.354;2022-11-20T01:36:50;36.17;;;23.70;;
27375;SDS011;14844;51.302;6.354;2022-11-20T01:39:18;34.85;;;22.75;;
27375;SDS011;14844;51.302;6.354;2022-11-20T01:41:46;36.90;;;23.88;;
27375;SDS011;14844;51.302;6.354;2022-11-20T01:44:48;36.75;;;23.75;;
27375;SDS011;14844;51.302;6.354;2022-11-20T01:47:17;37.05;;;23.25;;
27375;SDS011;14844;51.302;6.354;2022-11-20T01:50:34;39.28;;;23.77;;
27375;SDS011;14844;51.302;6.354;2022-11-20T01:52:53;40.75;;;24.08;;
27375;SDS011;14844;51.302;6.354;2022-11-20T01:55:23;37.58;;;23.20;;
27375;SDS011;14844;51.302;6.354;2022-11-20T01:57:51;40.40;;;24.63;;
27375;SDS011;14844;51.302;6.354;2022-11-20T02:00:18;38.63;;;23.85;;
27375;SDS011;14844;51.302;6.354;2022-11-20T02:02:50;40.97;;;24.95;;
27375;SDS011;14844;51.302;6.354;2022-11-20T02:07:47;43.15;;;25.05;;
27375;SDS011;14844;51.302;6.354;2022-11-20T02:10:14;43.15;;;25.60;;
27375;SDS011;14844;51.302;6.354;2022-11-20T02:12:40;41.17;;;25.80;;
27375;SDS011;14844;51.302;6.354;2022-11-20T02:15:24;40.88;;;25.27;;
27375;SDS011;14844;51.302;6.354;2022-11-20T02:17:50;42.28;;;26.65;;
27375;SDS011;14844;51.302;6.354;2022-11-20T02:20:15;44.15;;;26.92;;
27375;SDS011;14844;51.302;6.354;2022-11-20T02:22:48;41.88;;;26.90;;
27375;SDS011;14844;51.302;6.354;2022-11-20T02:25:19;45.13;;;27.30;;
27375;SDS011;14844;51.302;6.354;2022-11-20T02:27:45;41.42;;;27.48;;
27375;SDS011;14844;51.302;6.354;2022-11-20T02:30:11;45.22;;;27.90;;
27375;SDS011;14844;51.302;6.354;2022-11-20T02:32:38;42.80;;;28.42;;
27375;SDS011;14844;51.302;6.354;2022-11-20T02:37:49;44.47;;;27.80;;
27375;SDS011;14844;51.302;6.354;2022-11-20T02:40:21;47.22;;;27.50;;
27375;SDS011;14844;51.302;6.354;2022-11-20T02:42:51;51.60;;;29.20;;
27375;SDS011;14844;51.302;6.354;2022-11-20T02:45:17;51.60;;;29.10;;
27375;SDS011;14844;51.302;6.354;2022-11-20T02:47:43;46.78;;;28.40;;
27375;SDS011;14844;51.302;6.354;2022-11-20T02:50:08;48.13;;;29.42;;
27375;SDS011;14844;51.302;6.354;2022-11-20T02:52:34;47.25;;;29.40;;
27375;SDS011;14844;51.302;6.354;2022-11-20T02:54:59;48.65;;;29.27;;
27375;SDS011;14844;51.302;6.354;2022-11-20T02:57:25;51.72;;;30.33;;
27375;SDS011;14844;51.302;6.354;2022-11-20T02:59:51;48.40;;;30.00;;
27375;SDS011;14844;51.302;6.354;2022-11-20T03:02:16;47.92;;;29.27;;
27375;SDS011;14844;51.302;6.354;2022-11-20T03:04:42;50.03;;;30.15;;
27375;SDS011;14844;51.302;6.354;2022-11-20T03:07:07;47.88;;;29.65;;
27375;SDS011;14844;51.302;6.354;2022-11-20T03:09:34;50.90;;;30.30;;
27375;SDS011;14844;51.302;6.354;2022-11-20T03:12:00;55.80;;;31.20;;
27375;SDS011;14844;51.302;6.354;2022-11-20T03:14:25;53.42;;;31.08;;
27375;SDS011;14844;51.302;6.354;2022-11-20T03:16:51;53.08;;;31.30;;
27375;SDS011;14844;51.302;6.354;2022-11-20T03:19:17;51.35;;;31.88;;
27375;SDS011;14844;51.302;6.354;2022-11-20T03:21:42;56.83;;;33.60;;
27375;SDS011;14844;51.302;6.354;2022-11-20T03:24:08;55.22;;;32.90;;
27375;SDS011;14844;51.302;6.354;2022-11-20T03:26:34;53.72;;;32.35;;
27375;SDS011;14844;51.302;6.354;2022-11-20T03:29:00;56.80;;;33.63;;
27375;SDS011;14844;51.302;6.354;2022-11-20T03:31:28;53.95;;;33.25;;
27375;SDS011;14844;51.302;6.354;2022-11-20T03:33:56;50.83;;;32.08;;
27375;SDS011;14844;51.302;6.354;2022-11-20T03:36:22;54.28;;;32.63;;
27375;SDS011;14844;51.302;6.354;2022-11-20T03:38:48;53.97;;;31.75;;
27375;SDS011;14844;51.302;6.354;2022-11-20T03:41:24;52.70;;;31.48;;
27375;SDS011;14844;51.302;6.354;2022-11-20T03:43:56;50.08;;;31.13;;
27375;SDS011;14844;51.302;6.354;2022-11-20T03:48:52;47.20;;;28.38;;
27375;SDS011;14844;51.302;6.354;2022-11-20T03:51:19;49.15;;;30.05;;
27375;SDS011;14844;51.302;6.354;2022-11-20T03:53:50;45.10;;;29.38;;
27375;SDS011;14844;51.302;6.354;2022-11-20T03:56:18;47.88;;;29.10;;
27375;SDS011;14844;51.302;6.354;2022-11-20T03:58:45;47.95;;;28.90;;
27375;SDS011;14844;51.302;6.354;2022-11-20T04:01:15;45.03;;;28.33;;
27375;SDS011;14844;51.302;6.354;2022-11-20T04:03:42;47.38;;;28.38;;
27375;SDS011;14844;51.302;6.354;2022-11-20T04:06:16;44.63;;;28.38;;
27375;SDS011;14844;51.302;6.354;2022-11-20T04:08:44;44.13;;;27.95;;
27375;SDS011;14844;51.302;6.354;2022-11-20T04:11:10;45.50;;;28.00;;
27375;SDS011;14844;51.302;6.354;2022-11-20T04:13:41;41.20;;;27.38;;
27375;SDS011;14844;51.302;6.354;2022-11-20T04:16:10;41.92;;;26.90;;
27375;SDS011;14844;51.302;6.354;2022-11-20T04:18:36;41.60;;;26.13;;
27375;SDS011;14844;51.302;6.354;2022-11-20T04:21:02;37.25;;;24.67;;
27375;SDS011;14844;51.302;6.354;2022-11-20T04:23:28;41.00;;;25.58;;
27375;SDS011;14844;51.302;6.354;2022-11-20T04:25:54;37.88;;;24.27;;
27375;SDS011;14844;51.302;6.354;2022-11-20T04:28:20;41.28;;;25.33;;
27375;SDS011;14844;51.302;6.354;2022-11-20T04:30:46;39.13;;;25.02;;
27375;SDS011;14844;51.302;6.354;2022-11-20T04:33:11;38.55;;;25.20;;
27375;SDS011;14844;51.302;6.354;2022-11-20T04:35:37;36.63;;;23.50;;
27375;SDS011;14844;51.302;6.354;2022-11-20T04:38:03;34.10;;;22.60;;
27375;SDS011;14844;51.302;6.354;2022-11-20T04:40:29;36.08;;;23.35;;
27375;SDS011;14844;51.302;6.354;2022-11-20T04:42:55;33.40;;;23.92;;
27375;SDS011;14844;51.302;6.354;2022-11-20T04:45:24;36.60;;;22.95;;
27375;SDS011;14844;51.302;6.354;2022-11-20T04:47:49;34.55;;;22.50;;
27375;SDS011;14844;51.302;6.354;2022-11-20T04:50:15;34.72;;;22.48;;
27375;SDS011;14844;51.302;6.354;2022-11-20T04:52:40;34.17;;;22.55;;
27375;SDS011;14844;51.302;6.354;2022-11-20T04:55:06;33.63;;;22.42;;
27375;SDS011;14844;51.302;6.354;2022-11-20T04:57:32;35.97;;;23.08;;
27375;SDS011;14844;51.302;6.354;2022-11-20T04:59:58;37.80;;;22.77;;
27375;SDS011;14844;51.302;6.354;2022-11-20T05:02:23;35.35;;;22.98;;
27375;SDS011;14844;51.302;6.354;2022-11-20T05:04:49;32.90;;;22.73;;
27375;SDS011;14844;51.302;6.354;2022-11-20T05:07:14;34.13;;;22.42;;
27375;SDS011;14844;51.302;6.354;2022-11-20T05:09:40;35.92;;;23.52;;
27375;SDS011;14844;51.302;6.354;2022-11-20T05:12:07;36.28;;;23.20;;
27375;SDS011;14844;51.302;6.354;2022-11-20T05:14:33;35.45;;;22.02;;
27375;SDS011;14844;51.302;6.354;2022-11-20T05:16:58;33.55;;;22.98;;
27375;SDS011;14844;51.302;6.354;2022-11-20T05:19:24;36.67;;;22.73;;
27375;SDS011;14844;51.302;6.354;2022-11-20T05:21:49;36.00;;;22.90;;
27375;SDS011;14844;51.302;6.354;2022-11-20T05:24:15;34.63;;;23.75;;
27375;SDS011;14844;51.302;6.354;2022-11-20T05:26:40;37.72;;;24.15;;
27375;SDS011;14844;51.302;6.354;2022-11-20T05:29:06;39.05;;;23.65;;
27375;SDS011;14844;51.302;6.354;2022-11-20T05:31:31;36.47;;;23.88;;
27375;SDS011;14844;51.302;6.354;2022-11-20T05:33:57;35.25;;;23.02;;
27375;SDS011;14844;51.302;6.354;2022-11-20T05:36:23;35.10;;;22.13;;
27375;SDS011;14844;51.302;6.354;2022-11-20T05:38:49;34.53;;;22.13;;
27375;SDS011;14844;51.302;6.354;2022-11-20T05:41:16;33.83;;;22.85;;
27375;SDS011;14844;51.302;6.354;2022-11-20T05:43:43;33.10;;;21.55;;
27375;SDS011;14844;51.302;6.354;2022-11-20T05:46:11;35.35;;;21.80;;
27375;SDS011;14844;51.302;6.354;2022-11-20T05:48:38;32.75;;;21.73;;
27375;SDS011;14844;51.302;6.354;2022-11-20T05:51:05;33.83;;;21.67;;
27375;SDS011;14844;51.302;6.354;2022-11-20T05:53:33;32.00;;;21.30;;
27375;SDS011;14844;51.302;6.354;2022-11-20T05:56:04;31.17;;;20.70;;
27375;SDS011;14844;51.302;6.354;2022-11-20T05:58:57;34.38;;;20.38;;
27375;SDS011;14844;51.302;6.354;2022-11-20T06:01:23;32.47;;;21.13;;
27375;SDS011;14844;51.302;6.354;2022-11-20T06:03:50;30.13;;;20.77;;
27375;SDS011;14844;51.302;6.354;2022-11-20T06:06:17;36.13;;;22.45;;
27375;SDS011;14844;51.302;6.354;2022-11-20T06:08:44;31.98;;;21.23;;
27375;SDS011;14844;51.302;6.354;2022-11-20T06:11:11;31.75;;;21.27;;
27375;SDS011;14844;51.302;6.354;2022-11-20T06:13:38;30.05;;;20.77;;
27375;SDS011;14844;51.302;6.354;2022-11-20T06:16:04;32.92;;;21.10;;
27375;SDS011;14844;51.302;6.354;2022-11-20T06:18:30;32.38;;;21.38;;
27375;SDS011;14844;51.302;6.354;2022-11-20T06:21:00;32.25;;;21.60;;
27375;SDS011;14844;51.302;6.354;2022-11-20T06:23:35;32.95;;;21.27;;
27375;SDS011;14844;51.302;6.354;2022-11-20T06:26:08;32.00;;;21.13;;
27375;SDS011;14844;51.302;6.354;2022-11-20T06:28:36;33.75;;;21.48;;
27375;SDS011;14844;51.302;6.354;2022-11-20T06:31:02;33.45;;;21.70;;
27375;SDS011;14844;51.302;6.354;2022-11-20T06:33:28;33.05;;;20.48;;
27375;SDS011;14844;51.302;6.354;2022-11-20T06:35:56;31.83;;;21.25;;
27375;SDS011;14844;51.302;6.354;2022-11-20T06:38:23;35.60;;;22.80;;
27375;SDS011;14844;51.302;6.354;2022-11-20T06:40:49;30.20;;;21.33;;
27375;SDS011;14844;51.302;6.354;2022-11-20T06:43:14;33.42;;;22.25;;
27375;SDS011;14844;51.302;6.354;2022-11-20T06:45:40;32.10;;;21.95;;
27375;SDS011;14844;51.302;6.354;2022-11-20T06:48:05;35.88;;;21.00;;
27375;SDS011;14844;51.302;6.354;2022-11-20T06:50:31;30.30;;;21.05;;
27375;SDS011;14844;51.302;6.354;2022-11-20T06:52:59;35.28;;;22.75;;
27375;SDS011;14844;51.302;6.354;2022-11-20T06:55:25;32.78;;;21.70;;
27375;SDS011;14844;51.302;6.354;2022-11-20T06:57:51;36.40;;;22.83;;
27375;SDS011;14844;51.302;6.354;2022-11-20T07:00:16;35.90;;;23.27;;
27375;SDS011;14844;51.302;6.354;2022-11-20T07:02:42;32.90;;;22.48;;
27375;SDS011;14844;51.302;6.354;2022-11-20T07:05:08;30.35;;;21.30;;
27375;SDS011;14844;51.302;6.354;2022-11-20T07:07:33;31.90;;;21.80;;
27375;SDS011;14844;51.302;6.354;2022-11-20T07:09:59;29.67;;;20.55;;
27375;SDS011;14844;51.302;6.354;2022-11-20T07:12:24;32.63;;;21.70;;
27375;SDS011;14844;51.302;6.354;2022-11-20T07:14:50;38.42;;;24.40;;
27375;SDS011;14844;51.302;6.354;2022-11-20T07:17:15;35.15;;;23.58;;
27375;SDS011;14844;51.302;6.354;2022-11-20T07:19:41;36.05;;;23.17;;
27375;SDS011;14844;51.302;6.354;2022-11-20T07:22:07;35.33;;;23.58;;
27375;SDS011;14844;51.302;6.354;2022-11-20T07:24:33;38.97;;;23.35;;
27375;SDS011;14844;51.302;6.354;2022-11-20T07:26:59;32.00;;;22.80;;
27375;SDS011;14844;51.302;6.354;2022-11-20T07:29:25;35.50;;;23.13;;
27375;SDS011;14844;51.302;6.354;2022-11-20T07:31:51;35.70;;;23.40;;
27375;SDS011;14844;51.302;6.354;2022-11-20T07:34:16;34.13;;;22.75;;
27375;SDS011;14844;51.302;6.354;2022-11-20T07:36:42;34.72;;;22.67;;
27375;SDS011;14844;51.302;6.354;2022-11-20T07:39:07;35.10;;;23.73;;
27375;SDS011;14844;51.302;6.354;2022-11-20T07:41:33;34.22;;;24.05;;
27375;SDS011;14844;51.302;6.354;2022-11-20T07:43:58;35.78;;;23.45;;
27375;SDS011;14844;51.302;6.354;2022-11-20T07:46:24;36.25;;;24.20;;
27375;SDS011;14844;51.302;6.354;2022-11-20T07:48:49;35.50;;;23.10;;
27375;SDS011;14844;51.302;6.354;2022-11-20T07:51:15;37.80;;;23.40;;
27375;SDS011;14844;51.302;6.354;2022-11-20T07:53:41;41.05;;;25.83;;
27375;SDS011;14844;51.302;6.354;2022-11-20T07:56:08;36.13;;;24.17;;
27375;SDS011;14844;51.302;6.354;2022-11-20T07:58:43;36.08;;;23.75;;
27375;SDS011;14844;51.302;6.354;2022-11-20T08:01:08;35.25;;;23.95;;
27375;SDS011;14844;51.302;6.354;2022-11-20T08:03:34;34.67;;;23.52;;
27375;SDS011;14844;51.302;6.354;2022-11-20T08:06:02;37.97;;;23.30;;
27375;SDS011;14844;51.302;6.354;2022-11-20T08:08:28;33.65;;;22.58;;
27375;SDS011;14844;51.302;6.354;2022-11-20T08:10:54;32.90;;;22.52;;
27375;SDS011;14844;51.302;6.354;2022-11-20T08:13:41;31.52;;;22.42;;
27375;SDS011;14844;51.302;6.354;2022-11-20T08:16:27;34.53;;;23.95;;
27375;SDS011;14844;51.302;6.354;2022-11-20T08:18:53;31.63;;;22.00;;
27375;SDS011;14844;51.302;6.354;2022-11-20T08:21:19;33.40;;;22.38;;
27375;SDS011;14844;51.302;6.354;2022-11-20T08:23:44;31.70;;;22.38;;
27375;SDS011;14844;51.302;6.354;2022-11-20T08:26:10;35.78;;;23.23;;
27375;SDS011;14844;51.302;6.354;2022-11-20T08:28:35;31.23;;;21.98;;
27375;SDS011;14844;51.302;6.354;2022-11-20T08:31:01;35.83;;;21.67;;
27375;SDS011;14844;51.302;6.354;2022-11-20T08:33:28;31.90;;;21.92;;
27375;SDS011;14844;51.302;6.354;2022-11-20T08:35:58;31.23;;;22.35;;
27375;SDS011;14844;51.302;6.354;2022-11-20T08:38:25;33.55;;;21.80;;
27375;SDS011;14844;51.302;6.354;2022-11-20T08:40:51;34.90;;;23.20;;
27375;SDS011;14844;51.302;6.354;2022-11-20T08:43:35;34.47;;;22.58;;
27375;SDS011;14844;51.302;6.354;2022-11-20T08:46:00;35.13;;;22.85;;
27375;SDS011;14844;51.302;6.354;2022-11-20T08:48:26;33.65;;;22.23;;
27375;SDS011;14844;51.302;6.354;2022-11-20T08:50:52;31.45;;;21.75;;
27375;SDS011;14844;51.302;6.354;2022-11-20T08:53:17;31.20;;;21.88;;
27375;SDS011;14844;51.302;6.354;2022-11-20T08:55:42;33.53;;;22.50;;
27375;SDS011;14844;51.302;6.354;2022-11-20T08:58:08;36.90;;;23.00;;
27375;SDS011;14844;51.302;6.354;2022-11-20T09:00:34;40.33;;;23.50;;
27375;SDS011;14844;51.302;6.354;2022-11-20T09:03:00;35.38;;;22.58;;
27375;SDS011;14844;51.302;6.354;2022-11-20T09:05:26;37.20;;;23.15;;
27375;SDS011;14844;51.302;6.354;2022-11-20T09:08:08;39.55;;;24.08;;
27375;SDS011;14844;51.302;6.354;2022-11-20T09:10:34;39.05;;;23.23;;
27375;SDS011;14844;51.302;6.354;2022-11-20T09:13:11;41.05;;;24.80;;
27375;SDS011;14844;51.302;6.354;2022-11-20T09:15:37;41.60;;;24.10;;
27375;SDS011;14844;51.302;6.354;2022-11-20T09:18:02;38.42;;;23.15;;
27375;SDS011;14844;51.302;6.354;2022-11-20T09:20:31;47.53;;;24.45;;
27375;SDS011;14844;51.302;6.354;2022-11-20T09:22:57;47.58;;;24.15;;
27375;SDS011;14844;51.302;6.354;2022-11-20T09:25:23;46.53;;;24.60;;
27375;SDS011;14844;51.302;6.354;2022-11-20T09:27:54;47.53;;;24.48;;
27375;SDS011;14844;51.302;6.354;2022-11-20T09:30:21;48.80;;;25.02;;
27375;SDS011;14844;51.302;6.354;2022-11-20T09:32:46;61.35;;;26.63;;
27375;SDS011;14844;51.302;6.354;2022-11-20T09:35:12;84.60;;;33.58;;
27375;SDS011;14844;51.302;6.354;2022-11-20T09:37:39;80.60;;;35.30;;
27375;SDS011;14844;51.302;6.354;2022-11-20T09:40:05;98.70;;;38.10;;
27375;SDS011;14844;51.302;6.354;2022-11-20T09:42:50;97.32;;;39.67;;
27375;SDS011;14844;51.302;6.354;2022-11-20T09:45:47;112.10;;;40.00;;
27375;SDS011;14844;51.302;6.354;2022-11-20T09:48:26;99.28;;;39.25;;
27375;SDS011;14844;51.302;6.354;2022-11-20T09:51:06;108.90;;;40.97;;
27375;SDS011;14844;51.302;6.354;2022-11-20T09:56:21;96.78;;;39.28;;
27375;SDS011;14844;51.302;6.354;2022-11-20T09:58:50;97.50;;;38.97;;
27375;SDS011;14844;51.302;6.354;2022-11-20T10:01:23;98.68;;;40.65;;
27375;SDS011;14844;51.302;6.354;2022-11-20T10:03:58;98.05;;;39.35;;
27375;SDS011;14844;51.302;6.354;2022-11-20T10:06:32;97.93;;;38.70;;
27375;SDS011;14844;51.302;6.354;2022-11-20T10:14:34;92.13;;;38.20;;
27375;SDS011;14844;51.302;6.354;2022-11-20T10:19:54;85.30;;;37.63;;
27375;SDS011;14844;51.302;6.354;2022-11-20T10:25:40;81.18;;;36.78;;
27375;SDS011;14844;51.302;6.354;2022-11-20T10:30:59;83.70;;;36.70;;
27375;SDS011;14844;51.302;6.354;2022-11-20T10:33:29;79.85;;;35.70;;
27375;SDS011;14844;51.302;6.354;2022-11-20T10:36:16;75.15;;;35.38;;
27375;SDS011;14844;51.302;6.354;2022-11-20T10:38:55;70.60;;;35.45;;
27375;SDS011;14844;51.302;6.354;2022-11-20T10:41:33;73.65;;;35.60;;
27375;SDS011;14844;51.302;6.354;2022-11-20T10:44:08;74.70;;;36.28;;
27375;SDS011;14844;51.302;6.354;2022-11-20T10:46:45;64.07;;;33.05;;
27375;SDS011;14844;51.302;6.354;2022-11-20T10:49:15;57.90;;;30.75;;
27375;SDS011;14844;51.302;6.354;2022-11-20T10:51:50;59.35;;;31.02;;
27375;SDS011;14844;51.302;6.354;2022-11-20T10:54:55;59.53;;;30.02;;
27375;SDS011;14844;51.302;6.354;2022-11-20T11:00:26;64.82;;;31.23;;
27375;SDS011;14844;51.302;6.354;2022-11-20T11:02:55;52.28;;;29.45;;
27375;SDS011;14844;51.302;6.354;2022-11-20T11:05:32;56.65;;;28.05;;
27375;SDS011;14844;51.302;6.354;2022-11-20T11:08:10;54.05;;;29.15;;
27375;SDS011;14844;51.302;6.354;2022-11-20T11:10:42;57.35;;;30.00;;
27375;SDS011;14844;51.302;6.354;2022-11-20T11:13:30;56.10;;;28.88;;
27375;SDS011;14844;51.302;6.354;2022-11-20T11:15:56;50.08;;;27.63;;
27375;SDS011;14844;51.302;6.354;2022-11-20T11:18:32;53.00;;;28.48;;
27375;SDS011;14844;51.302;6.354;2022-11-20T11:21:00;48.70;;;27.40;;
27375;SDS011;14844;51.302;6.354;2022-11-20T11:26:18;47.35;;;26.80;;
27375;SDS011;14844;51.302;6.354;2022-11-20T11:31:24;46.83;;;26.98;;
27375;SDS011;14844;51.302;6.354;2022-11-20T11:34:10;52.05;;;28.27;;
27375;SDS011;14844;51.302;6.354;2022-11-20T11:36:40;55.75;;;28.92;;
27375;SDS011;14844;51.302;6.354;2022-11-20T11:39:16;48.95;;;27.73;;
27375;SDS011;14844;51.302;6.354;2022-11-20T11:41:44;53.00;;;28.77;;
27375;SDS011;14844;51.302;6.354;2022-11-20T11:44:17;54.75;;;30.10;;
27375;SDS011;14844;51.302;6.354;2022-11-20T11:47:03;55.55;;;28.73;;
27375;SDS011;14844;51.302;6.354;2022-11-20T11:49:33;47.83;;;27.93;;
27375;SDS011;14844;51.302;6.354;2022-11-20T11:52:15;47.58;;;28.13;;
27375;SDS011;14844;51.302;6.354;2022-11-20T12:02:23;48.05;;;28.83;;
27375;SDS011;14844;51.302;6.354;2022-11-20T12:07:42;51.17;;;28.45;;
27375;SDS011;14844;51.302;6.354;2022-11-20T12:10:23;47.90;;;28.83;;
27375;SDS011;14844;51.302;6.354;2022-11-20T12:15:58;51.20;;;29.38;;
27375;SDS011;14844;51.302;6.354;2022-11-20T12:18:24;52.15;;;29.08;;
27375;SDS011;14844;51.302;6.354;2022-11-20T12:20:56;51.22;;;28.17;;
27375;SDS011;14844;51.302;6.354;2022-11-20T12:26:22;48.38;;;27.77;;
27375;SDS011;14844;51.302;6.354;2022-11-20T12:34:43;58.08;;;32.28;;
27375;SDS011;14844;51.302;6.354;2022-11-20T12:40:07;51.85;;;29.20;;
27375;SDS011;14844;51.302;6.354;2022-11-20T12:48:41;48.58;;;28.65;;
27375;SDS011;14844;51.302;6.354;2022-11-20T12:51:30;50.83;;;29.20;;
27375;SDS011;14844;51.302;6.354;2022-11-20T12:56:59;48.10;;;28.10;;
27375;SDS011;14844;51.302;6.354;2022-11-20T13:08:28;66.03;;;37.63;;
27375;SDS011;14844;51.302;6.354;2022-11-20T13:11:09;48.90;;;27.15;;
27375;SDS011;14844;51.302;6.354;2022-11-20T13:16:50;48.35;;;27.95;;
27375;SDS011;14844;51.302;6.354;2022-11-20T13:19:25;47.92;;;27.65;;
27375;SDS011;14844;51.302;6.354;2022-11-20T13:21:52;47.45;;;26.77;;
27375;SDS011;14844;51.302;6.354;2022-11-20T13:29:37;46.03;;;27.35;;
27375;SDS011;14844;51.302;6.354;2022-11-20T13:32:13;47.92;;;28.10;;
27375;SDS011;14844;51.302;6.354;2022-11-20T13:34:56;49.83;;;28.25;;
27375;SDS011;14844;51.302;6.354;2022-11-20T13:37:31;47.95;;;27.40;;
27375;SDS011;14844;51.302;6.354;2022-11-20T13:42:44;49.13;;;27.40;;
27375;SDS011;14844;51.302;6.354;2022-11-20T13:47:49;43.22;;;26.25;;
27375;SDS011;14844;51.302;6.354;2022-11-20T13:50:24;41.47;;;25.58;;
27375;SDS011;14844;51.302;6.354;2022-11-20T13:56:02;45.80;;;26.13;;
27375;SDS011;14844;51.302;6.354;2022-11-20T14:01:33;47.00;;;27.33;;
27375;SDS011;14844;51.302;6.354;2022-11-20T14:03:59;51.47;;;28.50;;
27375;SDS011;14844;51.302;6.354;2022-11-20T14:06:43;46.70;;;27.88;;
27375;SDS011;14844;51.302;6.354;2022-11-20T14:09:11;50.30;;;29.42;;
27375;SDS011;14844;51.302;6.354;2022-11-20T14:11:45;52.63;;;28.55;;
27375;SDS011;14844;51.302;6.354;2022-11-20T14:14:16;53.15;;;29.38;;
27375;SDS011;14844;51.302;6.354;2022-11-20T14:16:44;51.40;;;30.05;;
27375;SDS011;14844;51.302;6.354;2022-11-20T14:19:21;54.67;;;29.65;;
27375;SDS011;14844;51.302;6.354;2022-11-20T14:21:52;48.95;;;29.48;;
27375;SDS011;14844;51.302;6.354;2022-11-20T14:24:36;49.67;;;29.00;;
27375;SDS011;14844;51.302;6.354;2022-11-20T14:27:02;51.10;;;30.30;;
27375;SDS011;14844;51.302;6.354;2022-11-20T14:29:29;48.15;;;29.08;;
27375;SDS011;14844;51.302;6.354;2022-11-20T14:31:59;49.97;;;29.45;;
27375;SDS011;14844;51.302;6.354;2022-11-20T14:34:32;50.03;;;30.70;;
27375;SDS011;14844;51.302;6.354;2022-11-20T14:37:05;49.60;;;29.75;;
27375;SDS011;14844;51.302;6.354;2022-11-20T14:39:37;50.55;;;30.08;;
27375;SDS011;14844;51.302;6.354;2022-11-20T14:42:17;50.92;;;29.38;;
27375;SDS011;14844;51.302;6.354;2022-11-20T14:44:44;48.65;;;28.83;;
27375;SDS011;14844;51.302;6.354;2022-11-20T14:47:12;49.90;;;29.98;;
27375;SDS011;14844;51.302;6.354;2022-11-20T14:49:40;54.20;;;31.02;;
27375;SDS011;14844;51.302;6.354;2022-11-20T14:52:14;53.50;;;31.50;;
27375;SDS011;14844;51.302;6.354;2022-11-20T14:54:46;47.90;;;29.45;;
27375;SDS011;14844;51.302;6.354;2022-11-20T14:57:20;52.92;;;30.90;;
27375;SDS011;14844;51.302;6.354;2022-11-20T14:59:49;52.85;;;31.65;;
27375;SDS011;14844;51.302;6.354;2022-11-20T15:02:14;55.90;;;32.35;;
27375;SDS011;14844;51.302;6.354;2022-11-20T15:04:44;57.30;;;32.83;;
27375;SDS011;14844;51.302;6.354;2022-11-20T15:07:28;55.85;;;33.63;;
27375;SDS011;14844;51.302;6.354;2022-11-20T15:09:59;58.80;;;33.63;;
27375;SDS011;14844;51.302;6.354;2022-11-20T15:12:38;61.78;;;33.90;;
27375;SDS011;14844;51.302;6.354;2022-11-20T15:15:14;51.15;;;32.58;;
27375;SDS011;14844;51.302;6.354;2022-11-20T15:17:48;59.83;;;32.50;;
27375;SDS011;14844;51.302;6.354;2022-11-20T15:20:14;63.38;;;35.60;;
27375;SDS011;14844;51.302;6.354;2022-11-20T15:22:41;58.13;;;34.83;;
27375;SDS011;14844;51.302;6.354;2022-11-20T15:25:14;62.53;;;34.33;;
27375;SDS011;14844;51.302;6.354;2022-11-20T15:27:41;59.15;;;34.08;;
27375;SDS011;14844;51.302;6.354;2022-11-20T15:30:17;63.33;;;35.10;;
27375;SDS011;14844;51.302;6.354;2022-11-20T15:32:44;59.92;;;35.15;;
27375;SDS011;14844;51.302;6.354;2022-11-20T15:35:11;59.13;;;34.92;;
27375;SDS011;14844;51.302;6.354;2022-11-20T15:37:37;61.95;;;35.35;;
27375;SDS011;14844;51.302;6.354;2022-11-20T15:40:04;64.22;;;35.88;;
27375;SDS011;14844;51.302;6.354;2022-11-20T15:42:30;66.53;;;35.53;;
27375;SDS011;14844;51.302;6.354;2022-11-20T15:44:56;66.53;;;36.50;;
27375;SDS011;14844;51.302;6.354;2022-11-20T15:47:24;67.68;;;37.47;;
27375;SDS011;14844;51.302;6.354;2022-11-20T15:49:52;73.03;;;39.17;;
27375;SDS011;14844;51.302;6.354;2022-11-20T15:52:18;75.75;;;37.42;;
27375;SDS011;14844;51.302;6.354;2022-11-20T15:54:43;74.22;;;38.78;;
27375;SDS011;14844;51.302;6.354;2022-11-20T15:57:09;69.82;;;37.80;;
27375;SDS011;14844;51.302;6.354;2022-11-20T15:59:35;86.32;;;47.17;;
27375;SDS011;14844;51.302;6.354;2022-11-20T16:02:08;78.82;;;37.90;;
27375;SDS011;14844;51.302;6.354;2022-11-20T16:04:35;80.97;;;39.75;;
27375;SDS011;14844;51.302;6.354;2022-11-20T16:07:01;79.60;;;38.83;;
27375;SDS011;14844;51.302;6.354;2022-11-20T16:09:26;78.97;;;39.55;;